Time;durP1;ratioP1;P1;durP2;ratioP2;P2;SDS_P1;SDS_P2;PMS_P1;PMS_P2;Temp;Humidity;BMP_temperature;BMP_pressure;BME280_temperature;BME280_humidity;BME280_pressure;Samples;Min_cycle;Max_cycle;Signal;HPM_P1;HPM_P2
2022/07/09 00:01:01;;;;;;;3.63;2.73;;;13.70;99.90;;;;;;5032955;28;20257;-77
2022/07/09 00:03:30;;;;;;;4.07;2.73;;;13.60;99.90;;;;;;5031289;28;20265;-79
2022/07/09 00:05:57;;;;;;;4.20;3.03;;;13.50;99.90;;;;;;5028068;28;20653;-79
2022/07/09 00:08:23;;;;;;;3.63;3.13;;;13.40;99.90;;;;;;5031917;28;20200;-78
2022/07/09 00:10:50;;;;;;;3.30;3.00;;;13.40;99.90;;;;;;5032073;28;20294;-78
2022/07/09 00:13:17;;;;;;;4.07;3.07;;;13.40;99.90;;;;;;5028185;28;20286;-79
2022/07/09 00:15:44;;;;;;;2.97;2.77;;;13.40;99.90;;;;;;5029336;28;20501;-80
2022/07/09 00:18:11;;;;;;;4.40;3.13;;;13.40;99.90;;;;;;5023412;28;20246;-79
2022/07/09 00:20:39;;;;;;;4.47;3.17;;;13.30;99.90;;;;;;5032984;28;20256;-78
2022/07/09 00:23:06;;;;;;;3.40;3.03;;;13.30;99.90;;;;;;5030273;28;20212;-78
2022/07/09 00:25:32;;;;;;;4.07;2.73;;;13.30;99.90;;;;;;5026403;28;20226;-78
2022/07/09 00:27:59;;;;;;;3.97;3.30;;;13.30;99.90;;;;;;5039372;28;20249;-77
2022/07/09 00:30:26;;;;;;;5.20;3.40;;;13.30;99.90;;;;;;5028025;28;20609;-78
2022/07/09 00:32:53;;;;;;;5.67;3.43;;;13.30;99.90;;;;;;5015293;28;20708;-77
2022/07/09 00:35:20;;;;;;;4.30;3.37;;;13.10;99.90;;;;;;5026721;28;20208;-80
2022/07/09 00:37:48;;;;;;;5.27;3.67;;;13.10;99.90;;;;;;5017172;28;20207;-78
2022/07/09 00:40:15;;;;;;;4.00;3.10;;;13.10;99.90;;;;;;5032586;28;20198;-77
2022/07/09 00:42:42;;;;;;;3.50;3.10;;;13.10;99.90;;;;;;5025164;28;20263;-78
2022/07/09 00:45:09;;;;;;;4.87;2.93;;;13.10;99.90;;;;;;5031832;28;20614;-78
2022/07/09 00:47:35;;;;;;;3.40;3.07;;;13.10;99.90;;;;;;5032232;28;20197;-77
2022/07/09 00:50:03;;;;;;;5.30;3.33;;;13.20;99.90;;;;;;5015570;28;20581;-78
2022/07/09 00:52:31;;;;;;;4.77;3.50;;;13.20;99.90;;;;;;5017228;28;20649;-77
2022/07/09 00:55:02;;;;;;;3.53;3.10;;;13.20;99.90;;;;;;5016259;28;20195;-78
2022/07/09 00:57:29;;;;;;;4.50;3.43;;;13.20;99.90;;;;;;5025783;28;20219;-77
2022/07/09 00:59:57;;;;;;;4.30;3.40;;;13.10;99.90;;;;;;5032257;28;20192;-79
2022/07/09 01:02:24;;;;;;;4.67;3.30;;;13.10;99.90;;;;;;5032279;28;20262;-77
2022/07/09 01:04:51;;;;;;;3.77;3.23;;;13.10;99.90;;;;;;5023917;28;20216;-77
2022/07/09 01:07:18;;;;;;;4.33;3.20;;;13.10;99.90;;;;;;5032328;28;20249;-77
2022/07/09 01:09:45;;;;;;;5.10;3.20;;;13.10;99.90;;;;;;5028078;28;20749;-78
2022/07/09 01:12:13;;;;;;;5.43;3.30;;;13.10;99.90;;;;;;5027841;28;20633;-77
2022/07/09 01:14:40;;;;;;;3.33;2.90;;;13.00;99.90;;;;;;5019026;28;20271;-77
2022/07/09 01:17:08;;;;;;;4.90;3.70;;;12.90;99.90;;;;;;5024317;28;20546;-77
2022/07/09 01:19:35;;;;;;;6.97;4.37;;;12.90;99.90;;;;;;5036053;28;20666;-78
2022/07/09 01:22:04;;;;;;;8.43;4.17;;;12.90;99.90;;;;;;5027490;28;20201;-79
2022/07/09 01:24:31;;;;;;;5.60;3.63;;;12.80;99.90;;;;;;5028029;28;20226;-78
2022/07/09 01:26:57;;;;;;;4.43;3.73;;;12.80;99.90;;;;;;5038740;28;20218;-77
2022/07/09 01:29:24;;;;;;;4.60;3.53;;;12.80;99.90;;;;;;5028023;28;20194;-79
2022/07/09 01:31:51;;;;;;;4.13;3.80;;;12.80;99.90;;;;;;5023267;28;20284;-77
2022/07/09 01:34:18;;;;;;;5.73;3.73;;;12.80;99.90;;;;;;5035084;28;20274;-77
2022/07/09 01:36:45;;;;;;;3.83;3.50;;;12.80;99.90;;;;;;5034857;28;20189;-78
2022/07/09 01:39:13;;;;;;;5.27;3.40;;;12.80;99.90;;;;;;5035075;28;20256;-77
2022/07/09 01:41:40;;;;;;;3.93;3.53;;;12.70;99.90;;;;;;5035822;28;20198;-79
2022/07/09 01:44:08;;;;;;;4.57;3.87;;;12.70;99.90;;;;;;5030109;28;20220;-77
2022/07/09 01:46:35;;;;;;;4.10;3.70;;;12.60;99.90;;;;;;5009274;28;20214;-75
2022/07/09 01:49:01;;;;;;;3.60;3.30;;;12.50;99.90;;;;;;5033594;28;20190;-77
2022/07/09 01:51:28;;;;;;;4.20;3.70;;;12.50;99.90;;;;;;5035633;28;20206;-78
2022/07/09 01:53:56;;;;;;;4.07;3.67;;;12.50;99.90;;;;;;5034752;28;20702;-78
2022/07/09 01:56:24;;;;;;;4.07;3.67;;;12.50;99.90;;;;;;5028791;28;20215;-80
2022/07/09 01:58:51;;;;;;;4.10;3.47;;;12.50;99.90;;;;;;5030350;28;20263;-77
2022/07/09 02:01:17;;;;;;;4.60;3.43;;;12.40;99.90;;;;;;5026796;28;20252;-77
2022/07/09 02:03:44;;;;;;;3.70;3.40;;;12.40;99.90;;;;;;5022099;28;20223;-78
2022/07/09 02:06:11;;;;;;;5.23;3.70;;;12.40;99.90;;;;;;5009104;28;20254;-78
2022/07/09 02:08:39;;;;;;;5.83;3.80;;;12.40;99.90;;;;;;5035610;28;20201;-78
2022/07/09 02:11:06;;;;;;;6.83;3.83;;;12.40;99.90;;;;;;5029352;28;20210;-77
2022/07/09 02:13:34;;;;;;;5.90;3.63;;;12.40;99.90;;;;;;5011799;28;20489;-79
2022/07/09 02:16:01;;;;;;;5.37;3.63;;;12.40;99.90;;;;;;5034634;28;20209;-77
2022/07/09 02:18:28;;;;;;;5.53;3.67;;;12.40;99.90;;;;;;5034952;28;20408;-76
2022/07/09 02:20:56;;;;;;;4.40;3.70;;;12.40;99.90;;;;;;5030998;28;20202;-79
2022/07/09 02:23:23;;;;;;;5.60;3.17;;;12.40;99.90;;;;;;5031468;28;20315;-79
2022/07/09 02:25:50;;;;;;;3.70;3.10;;;12.40;99.90;;;;;;5021695;28;20197;-76
2022/07/09 02:28:17;;;;;;;5.33;3.23;;;12.30;99.90;;;;;;5032847;28;20226;-77
2022/07/09 02:30:45;;;;;;;4.33;3.43;;;12.30;99.90;;;;;;5032479;28;20208;-79
2022/07/09 02:33:12;;;;;;;2.80;2.57;;;12.40;99.90;;;;;;5027103;28;20222;-78
2022/07/09 02:35:39;;;;;;;4.77;3.20;;;12.30;99.90;;;;;;5034751;28;20672;-79
2022/07/09 02:38:05;;;;;;;3.03;2.80;;;12.30;99.90;;;;;;5029227;28;20667;-78
2022/07/09 02:40:32;;;;;;;4.93;3.20;;;12.30;99.90;;;;;;5026182;28;20256;-78
2022/07/09 02:42:59;;;;;;;3.73;3.07;;;12.30;99.90;;;;;;5034227;28;20225;-78
2022/07/09 02:45:26;;;;;;;8.07;3.47;;;12.20;99.90;;;;;;5028539;28;20197;-77
2022/07/09 02:47:54;;;;;;;3.57;3.20;;;12.20;99.90;;;;;;5030662;28;20217;-79
2022/07/09 02:50:21;;;;;;;4.93;3.30;;;12.10;99.90;;;;;;5030939;28;20221;-76
2022/07/09 02:52:48;;;;;;;3.87;3.40;;;12.00;99.90;;;;;;5033244;28;20198;-77
2022/07/09 02:55:15;;;;;;;3.87;3.47;;;12.00;99.90;;;;;;5035041;28;20202;-78
2022/07/09 02:57:41;;;;;;;4.43;3.10;;;12.00;99.90;;;;;;5005731;28;20214;-81
2022/07/09 03:00:09;;;;;;;4.63;3.27;;;11.90;99.90;;;;;;5018968;28;20621;-78
2022/07/09 03:02:36;;;;;;;3.40;3.10;;;11.90;99.90;;;;;;5024899;28;20279;-81
2022/07/09 03:05:05;;;;;;;3.87;3.17;;;11.80;99.90;;;;;;5012046;28;20215;-78
2022/07/09 03:07:31;;;;;;;4.17;3.53;;;11.80;99.90;;;;;;5034379;28;20283;-78
2022/07/09 03:09:58;;;;;;;3.37;3.07;;;11.80;99.90;;;;;;5041501;28;20679;-78
2022/07/09 03:12:25;;;;;;;3.80;3.47;;;11.80;99.90;;;;;;5034035;28;20189;-78
2022/07/09 03:14:52;;;;;;;3.83;3.20;;;11.80;99.90;;;;;;5051191;28;20737;-79
2022/07/09 03:17:19;;;;;;;3.83;3.30;;;11.80;99.90;;;;;;5049517;28;20193;-78
2022/07/09 03:19:45;;;;;;;3.43;3.13;;;11.70;99.90;;;;;;5054116;28;20258;-78
2022/07/09 03:22:14;;;;;;;3.53;3.20;;;11.70;99.90;;;;;;5032288;28;20220;-77
2022/07/09 03:24:40;;;;;;;4.17;3.17;;;11.70;99.90;;;;;;5030137;28;20221;-78
2022/07/09 03:27:07;;;;;;;4.40;3.10;;;11.80;99.90;;;;;;5030144;28;20276;-77
2022/07/09 03:29:34;;;;;;;3.60;3.23;;;11.80;99.90;;;;;;5010273;28;20233;-79
2022/07/09 03:32:01;;;;;;;3.73;3.10;;;11.80;99.90;;;;;;5038223;28;20219;-77
2022/07/09 03:34:28;;;;;;;3.27;2.97;;;11.80;99.90;;;;;;5049294;28;20604;-78
2022/07/09 03:36:55;;;;;;;3.57;3.00;;;11.80;99.90;;;;;;5053230;28;20200;-78
2022/07/09 03:39:23;;;;;;;3.87;2.80;;;11.80;99.90;;;;;;5054348;28;20192;-78
2022/07/09 03:41:50;;;;;;;3.10;2.80;;;11.80;99.90;;;;;;5027505;28;20206;-78
2022/07/09 03:44:17;;;;;;;3.60;3.30;;;11.80;99.90;;;;;;5030752;28;20300;-79
2022/07/09 03:46:44;;;;;;;5.73;3.87;;;11.80;99.90;;;;;;5019844;28;20221;-77
2022/07/09 03:49:11;;;;;;;4.60;3.47;;;11.80;99.90;;;;;;5032601;28;20248;-77
2022/07/09 03:51:38;;;;;;;3.97;3.43;;;11.70;99.90;;;;;;5018110;28;20217;-77
2022/07/09 03:54:05;;;;;;;4.33;3.40;;;11.70;99.90;;;;;;5025924;28;20217;-79
2022/07/09 03:56:33;;;;;;;3.97;3.50;;;11.70;99.90;;;;;;5010923;28;20201;-78
2022/07/09 03:58:59;;;;;;;4.63;3.00;;;11.70;99.90;;;;;;5031292;28;20559;-78
2022/07/09 04:01:26;;;;;;;5.20;3.60;;;11.80;99.90;;;;;;5025895;28;20677;-77
2022/07/09 04:03:53;;;;;;;4.33;3.33;;;11.80;99.90;;;;;;5031544;28;20219;-78
2022/07/09 04:06:21;;;;;;;3.50;3.20;;;11.90;99.90;;;;;;5034406;28;20275;-77
2022/07/09 04:08:47;;;;;;;3.97;3.27;;;11.90;99.90;;;;;;5034004;28;20209;-78
2022/07/09 04:11:14;;;;;;;3.43;3.10;;;12.00;99.90;;;;;;5023095;28;20760;-78
2022/07/09 04:13:42;;;;;;;3.87;2.93;;;12.10;99.90;;;;;;5022729;28;20214;-78
2022/07/09 04:16:09;;;;;;;3.63;3.33;;;12.20;99.90;;;;;;5027448;28;20194;-77
2022/07/09 04:18:36;;;;;;;3.53;3.10;;;12.30;99.90;;;;;;5027786;28;20611;-79
2022/07/09 04:21:04;;;;;;;3.40;3.10;;;12.30;99.90;;;;;;5024866;28;20213;-77
2022/07/09 04:23:30;;;;;;;3.30;3.00;;;12.40;99.90;;;;;;5031847;28;20643;-78
2022/07/09 04:25:57;;;;;;;4.80;3.00;;;12.40;99.90;;;;;;5030372;28;20228;-79
2022/07/09 04:28:24;;;;;;;3.57;3.23;;;12.40;99.90;;;;;;5028423;28;20248;-77
2022/07/09 04:30:52;;;;;;;4.13;3.00;;;12.50;99.90;;;;;;5012742;28;20230;-77
2022/07/09 04:33:19;;;;;;;3.20;2.90;;;12.50;99.90;;;;;;5024496;28;20220;-78
2022/07/09 04:35:46;;;;;;;3.53;3.23;;;12.60;99.90;;;;;;5027054;28;20206;-77
2022/07/09 04:38:13;;;;;;;3.50;2.90;;;12.70;99.90;;;;;;5031472;28;20186;-80
2022/07/09 04:40:40;;;;;;;3.20;2.90;;;12.70;99.90;;;;;;5045261;28;20304;-81
2022/07/09 04:43:07;;;;;;;3.07;2.60;;;12.90;99.90;;;;;;5042546;28;20271;-78
2022/07/09 04:45:34;;;;;;;4.83;2.87;;;13.00;99.90;;;;;;5045133;28;20209;-78
2022/07/09 04:48:02;;;;;;;3.20;2.90;;;13.10;99.90;;;;;;5041312;28;20245;-78
2022/07/09 04:50:29;;;;;;;4.57;3.00;;;13.30;99.90;;;;;;5032421;28;20195;-78
2022/07/09 04:52:56;;;;;;;3.07;2.73;;;13.30;99.90;;;;;;5015711;28;20224;-78
2022/07/09 04:55:23;;;;;;;4.67;3.40;;;13.50;99.90;;;;;;5041445;28;20196;-78
2022/07/09 04:57:50;;;;;;;3.83;3.10;;;13.60;99.90;;;;;;5038029;28;20602;-78
2022/07/09 05:00:17;;;;;;;3.43;3.07;;;13.70;99.90;;;;;;5028082;28;20660;-79
2022/07/09 05:02:44;;;;;;;4.23;3.43;;;13.90;99.90;;;;;;5043092;28;20230;-79
2022/07/09 05:05:13;;;;;;;3.30;3.00;;;14.00;99.90;;;;;;5033784;28;20219;-79
2022/07/09 05:07:40;;;;;;;3.60;3.20;;;14.20;99.90;;;;;;5038310;28;20224;-78
2022/07/09 05:10:08;;;;;;;3.77;2.80;;;14.30;99.90;;;;;;5034752;28;20205;-79
2022/07/09 05:12:35;;;;;;;3.10;2.80;;;14.30;99.90;;;;;;5037612;28;20604;-79
2022/07/09 05:15:04;;;;;;;4.00;3.10;;;14.40;99.90;;;;;;5035882;28;20211;-79
2022/07/09 05:17:35;;;;;;;4.63;3.10;;;14.50;99.90;;;;;;5040919;28;20202;-79
2022/07/09 05:20:03;;;;;;;2.93;2.63;;;14.60;99.90;;;;;;5018001;28;20264;-78
2022/07/09 05:22:32;;;;;;;4.43;2.83;;;14.70;99.90;;;;;;5038891;28;20199;-78
2022/07/09 05:24:58;;;;;;;5.33;3.63;;;14.80;99.90;;;;;;5044726;28;20779;-79
2022/07/09 05:27:25;;;;;;;3.73;3.23;;;15.00;99.90;;;;;;5042785;28;20273;-79
2022/07/09 05:29:53;;;;;;;4.00;3.23;;;15.10;99.90;;;;;;5025116;28;20268;-79
2022/07/09 05:32:19;;;;;;;4.77;2.93;;;15.20;99.90;;;;;;5040776;28;20259;-78
2022/07/09 05:34:46;;;;;;;3.63;2.80;;;15.40;99.90;;;;;;5036831;28;20239;-78
2022/07/09 05:37:13;;;;;;;3.17;2.73;;;15.50;99.90;;;;;;5034453;28;20234;-79
2022/07/09 05:39:41;;;;;;;4.37;3.17;;;15.60;99.90;;;;;;5038380;28;20222;-79
2022/07/09 05:42:08;;;;;;;5.37;3.00;;;15.80;99.90;;;;;;5045548;28;20253;-78
2022/07/09 05:44:35;;;;;;;3.60;2.90;;;15.90;99.90;;;;;;5037583;28;20231;-80
2022/07/09 05:47:02;;;;;;;4.27;3.00;;;16.00;99.90;;;;;;5032903;28;20208;-79
2022/07/09 05:49:29;;;;;;;3.50;2.50;;;16.30;99.90;;;;;;5037178;28;20616;-78
2022/07/09 05:51:56;;;;;;;5.40;5.00;;;16.70;99.90;;;;;;5031688;28;20299;-77
2022/07/09 05:54:23;;;;;;;5.53;5.13;;;17.10;99.90;;;;;;5023795;28;20696;-78
2022/07/09 05:56:51;;;;;;;5.10;4.70;;;17.70;99.90;;;;;;5026379;28;20203;-80
2022/07/09 05:59:18;;;;;;;4.93;4.53;;;18.10;99.90;;;;;;5033347;28;20235;-79
2022/07/09 06:01:45;;;;;;;5.87;5.37;;;18.70;99.90;;;;;;5049352;28;20199;-78
2022/07/09 06:04:12;;;;;;;9.87;5.80;;;19.20;99.90;;;;;;5050518;28;20248;-78
2022/07/09 06:06:39;;;;;;;4.70;4.30;;;19.80;99.90;;;;;;5047493;28;20205;-80
2022/07/09 06:09:06;;;;;;;5.67;4.83;;;20.20;99.90;;;;;;5032451;28;20716;-81
2022/07/09 06:11:33;;;;;;;5.80;5.30;;;20.60;99.90;;;;;;5033160;28;20711;-79
2022/07/09 06:14:01;;;;;;;4.50;4.07;;;20.70;99.90;;;;;;5030869;28;20244;-79
2022/07/09 06:16:28;;;;;;;4.73;4.33;;;20.60;99.90;;;;;;5021837;28;20203;-78
2022/07/09 06:18:55;;;;;;;5.80;5.13;;;20.60;99.90;;;;;;5033569;28;20216;-79
2022/07/09 06:21:22;;;;;;;4.83;4.43;;;20.80;99.90;;;;;;5034333;28;20274;-79
2022/07/09 06:23:49;;;;;;;5.10;4.60;;;21.00;99.90;;;;;;5036435;28;20654;-79
2022/07/09 06:26:15;;;;;;;6.87;6.27;;;21.10;99.90;;;;;;5045522;28;20203;-79
2022/07/09 06:28:42;;;;;;;4.77;4.33;;;21.10;99.90;;;;;;5038555;28;20271;-79
2022/07/09 06:31:10;;;;;;;5.60;5.20;;;21.40;99.90;;;;;;5041638;28;20200;-80
2022/07/09 06:33:37;;;;;;;4.97;4.57;;;21.60;99.90;;;;;;5032185;28;20279;-81
2022/07/09 06:36:05;;;;;;;6.20;5.50;;;21.90;99.90;;;;;;5017683;28;20823;-81
2022/07/09 06:38:31;;;;;;;4.40;4.00;;;22.10;99.90;;;;;;5037825;28;20188;-81
2022/07/09 06:40:58;;;;;;;3.90;3.50;;;22.20;99.90;;;;;;5009434;28;20257;-79
2022/07/09 06:43:25;;;;;;;4.60;4.10;;;22.20;99.90;;;;;;5037065;28;20329;-79
2022/07/09 06:45:54;;;;;;;6.07;5.20;;;22.20;99.90;;;;;;5034660;28;20223;-78
2022/07/09 06:48:22;;;;;;;7.23;6.47;;;22.50;99.90;;;;;;5030792;28;20831;-78
2022/07/09 06:50:49;;;;;;;6.93;6.33;;;22.80;99.90;;;;;;5027062;28;20215;-78
2022/07/09 06:53:15;;;;;;;6.67;4.63;;;23.10;99.90;;;;;;5024043;28;20219;-78
2022/07/09 06:55:43;;;;;;;6.27;4.50;;;23.30;99.90;;;;;;5041932;28;20692;-78
2022/07/09 06:58:10;;;;;;;7.17;5.90;;;23.80;99.90;;;;;;5040961;28;20196;-79
2022/07/09 07:00:36;;;;;;;6.53;5.93;;;23.80;99.90;;;;;;5038153;28;20610;-79
2022/07/09 07:03:03;;;;;;;6.60;5.80;;;24.00;99.90;;;;;;5023551;28;20278;-79
2022/07/09 07:05:32;;;;;;;5.30;4.20;;;24.00;99.90;;;;;;5040569;28;20200;-79
2022/07/09 07:07:58;;;;;;;3.83;2.20;;;23.60;99.90;;;;;;5043833;28;20353;-79
2022/07/09 07:10:25;;;;;;;6.20;5.13;;;23.50;99.90;;;;;;5040513;28;20200;-79
2022/07/09 07:12:52;;;;;;;2.80;2.20;;;23.90;99.90;;;;;;5037223;28;20284;-78
2022/07/09 07:15:19;;;;;;;6.67;6.07;;;24.10;99.90;;;;;;5039519;28;20224;-79
2022/07/09 07:17:47;;;;;;;6.53;6.00;;;24.20;99.90;;;;;;5035886;28;20196;-81
2022/07/09 07:20:14;;;;;;;7.03;6.43;;;24.60;99.80;;;;;;5039182;28;20196;-80
2022/07/09 07:22:42;;;;;;;6.93;6.23;;;24.80;99.90;;;;;;5033858;28;20265;-82
2022/07/09 07:25:09;;;;;;;3.40;2.30;;;25.10;99.60;;;;;;5028935;28;20927;-83
2022/07/09 07:27:36;;;;;;;6.50;5.90;;;25.00;99.20;;;;;;5025801;28;20196;-83
2022/07/09 07:30:04;;;;;;;6.23;5.80;;;25.30;99.40;;;;;;5025384;28;20231;-82
2022/07/09 07:32:30;;;;;;;5.13;4.70;;;25.60;99.40;;;;;;5014404;28;20205;-80
2022/07/09 07:34:57;;;;;;;6.63;6.00;;;26.00;98.50;;;;;;5030836;28;20218;-82
2022/07/09 07:37:24;;;;;;;6.97;5.70;;;26.20;98.70;;;;;;5019661;28;20277;-82
2022/07/09 07:39:52;;;;;;;6.10;5.60;;;26.50;98.70;;;;;;5031240;28;20270;-83
2022/07/09 07:42:19;;;;;;;6.77;5.63;;;26.90;97.90;;;;;;5029626;28;20207;-83
2022/07/09 07:44:46;;;;;;;3.63;3.30;;;26.80;98.00;;;;;;5032253;28;20212;-83
2022/07/09 07:47:12;;;;;;;6.60;5.80;;;26.80;97.00;;;;;;5037194;28;20196;-84
2022/07/09 07:49:39;;;;;;;7.10;6.20;;;26.50;97.40;;;;;;5031548;28;20208;-83
2022/07/09 07:52:07;;;;;;;6.37;5.80;;;25.90;98.10;;;;;;5044595;28;20200;-81
2022/07/09 07:54:35;;;;;;;5.00;3.90;;;25.20;98.00;;;;;;5006494;28;20287;-83
2022/07/09 07:57:04;;;;;;;4.00;2.97;;;24.90;98.70;;;;;;5026170;28;20239;-82
2022/07/09 07:59:31;;;;;;;3.07;2.30;;;24.90;98.80;;;;;;5040049;28;20245;-78
2022/07/09 08:01:58;;;;;;;4.30;2.30;;;25.10;98.90;;;;;;5033030;28;20199;-78
2022/07/09 08:04:24;;;;;;;5.30;2.47;;;25.20;98.10;;;;;;5027420;28;20703;-78
2022/07/09 08:06:51;;;;;;;4.53;2.70;;;25.50;98.70;;;;;;5018446;28;20200;-78
2022/07/09 08:09:18;;;;;;;3.27;2.23;;;25.70;97.60;;;;;;5028308;28;20312;-78
2022/07/09 08:11:45;;;;;;;4.30;3.13;;;25.50;97.10;;;;;;5025787;28;20208;-78
2022/07/09 08:14:13;;;;;;;3.30;2.50;;;25.20;98.70;;;;;;5026354;28;20708;-77
2022/07/09 08:16:40;;;;;;;5.00;4.20;;;25.50;98.10;;;;;;5024670;28;20200;-78
2022/07/09 08:19:07;;;;;;;6.80;6.10;;;26.00;97.60;;;;;;5030847;28;20250;-77
2022/07/09 08:21:34;;;;;;;5.93;5.33;;;26.60;96.30;;;;;;5028235;28;20200;-77
2022/07/09 08:24:04;;;;;;;6.33;5.80;;;26.50;95.90;;;;;;5025647;28;20615;-78
2022/07/09 08:26:31;;;;;;;8.67;6.07;;;26.90;95.90;;;;;;5007923;28;20196;-78
2022/07/09 08:28:57;;;;;;;5.90;4.43;;;27.10;94.70;;;;;;5031131;28;20261;-79
2022/07/09 08:31:25;;;;;;;6.50;5.90;;;26.50;94.00;;;;;;5030166;28;20664;-78
2022/07/09 08:33:52;;;;;;;6.27;5.70;;;26.50;94.50;;;;;;5033564;28;20216;-78
2022/07/09 08:36:19;;;;;;;7.33;6.10;;;27.00;94.00;;;;;;5024879;28;20235;-78
2022/07/09 08:38:49;;;;;;;6.40;5.80;;;27.10;95.20;;;;;;5030247;28;20685;-78
2022/07/09 08:41:19;;;;;;;5.90;5.50;;;27.30;94.00;;;;;;5012802;28;20660;-77
2022/07/09 08:43:50;;;;;;;5.90;5.30;;;27.80;94.00;;;;;;5034255;28;20223;-78
2022/07/09 08:46:17;;;;;;;3.77;2.83;;;27.70;93.10;;;;;;5022571;28;20258;-78
2022/07/09 08:48:46;;;;;;;6.20;5.70;;;27.90;93.80;;;;;;5031498;28;20629;-77
2022/07/09 08:51:13;;;;;;;4.57;4.27;;;28.10;92.70;;;;;;5034667;28;20188;-78
2022/07/09 08:53:42;;;;;;;6.23;5.63;;;28.00;93.60;;;;;;5028775;28;20303;-79
2022/07/09 08:56:09;;;;;;;6.10;5.60;;;28.10;92.20;;;;;;5028095;28;20196;-78
2022/07/09 08:58:36;;;;;;;4.87;4.27;;;28.50;93.00;;;;;;5026897;28;20211;-78
2022/07/09 09:01:04;;;;;;;5.20;4.70;;;28.50;91.60;;;;;;5021572;28;20666;-78
2022/07/09 09:03:30;;;;;;;5.50;5.05;;;28.50;92.10;;;;;;5033042;28;20995;-82
2022/07/09 09:06:03;;;;;;;4.95;3.92;;;28.60;92.00;;;;;;5034412;28;20433;-79
2022/07/09 09:08:35;;;;;;;5.27;4.83;;;28.60;91.60;;;;;;5034488;28;20270;-79
2022/07/09 09:11:02;;;;;;;5.27;4.87;;;28.60;92.60;;;;;;5029684;28;20214;-79
2022/07/09 09:13:29;;;;;;;5.03;4.57;;;28.50;91.40;;;;;;5033343;28;20277;-78
2022/07/09 09:16:04;;;;;;;5.80;5.30;;;28.50;93.30;;;;;;5024803;28;20258;-78
2022/07/09 09:18:31;;;;;;;5.10;4.60;;;28.30;92.50;;;;;;5013738;28;20697;-79
2022/07/09 09:21:04;;;;;;;4.73;4.33;;;28.40;92.60;;;;;;5030511;28;20203;-78
2022/07/09 09:23:39;;;;;;;5.37;5.03;;;28.20;91.20;;;;;;5010943;28;20247;-80
2022/07/09 09:26:14;;;;;;;5.70;5.07;;;28.00;91.90;;;;;;5010922;28;20210;-80
2022/07/09 09:28:49;;;;;;;5.03;4.63;;;28.20;93.50;;;;;;5030278;28;20216;-80
2022/07/09 09:31:23;;;;;;;5.73;5.23;;;28.50;92.60;;;;;;5026135;28;20277;-80
2022/07/09 09:33:51;;;;;;;5.50;5.00;;;28.50;93.10;;;;;;5028965;28;20227;-80
2022/07/09 09:36:33;;;;;;;4.90;4.47;;;28.70;91.70;;;;;;5029398;28;20193;-80
2022/07/09 09:39:14;;;;;;;4.50;4.10;;;28.70;94.10;;;;;;5033001;28;20757;-80
2022/07/09 09:41:42;;;;;;;6.17;5.37;;;28.40;91.80;;;;;;5027833;28;20197;-81
2022/07/09 09:44:11;;;;;;;5.17;4.67;;;28.70;92.20;;;;;;5037539;28;20277;-79
2022/07/09 09:46:39;;;;;;;5.10;4.80;;;28.70;91.90;;;;;;5036868;28;20245;-78
2022/07/09 09:49:08;;;;;;;5.40;4.90;;;28.90;91.20;;;;;;5030638;28;20623;-79
2022/07/09 09:51:39;;;;;;;5.50;5.00;;;28.80;92.40;;;;;;5030335;28;20192;-78
2022/07/09 09:54:06;;;;;;;5.10;4.70;;;28.80;92.10;;;;;;5011292;28;20734;-82
2022/07/09 09:56:33;;;;;;;5.10;4.80;;;28.80;91.30;;;;;;5030890;28;20204;-82
2022/07/09 09:59:01;;;;;;;8.60;5.10;;;28.60;91.90;;;;;;5035204;28;20223;-80
2022/07/09 10:01:30;;;;;;;6.57;5.00;;;28.60;92.80;;;;;;5039351;28;20264;-79
2022/07/09 10:03:57;;;;;;;5.43;4.90;;;28.70;92.20;;;;;;5031223;28;20254;-80
2022/07/09 10:06:26;;;;;;;5.20;4.80;;;29.20;92.40;;;;;;5038790;28;20201;-80
2022/07/09 10:08:55;;;;;;;5.50;5.10;;;29.30;90.60;;;;;;5044820;28;20219;-80
2022/07/09 10:11:25;;;;;;;5.00;4.70;;;29.50;91.30;;;;;;5039506;28;20206;-80
2022/07/09 10:13:53;;;;;;;5.53;5.10;;;29.70;90.50;;;;;;5035635;28;20224;-80
2022/07/09 10:16:41;;;;;;;5.83;5.43;;;29.80;90.60;;;;;;5040669;28;20203;-80
2022/07/09 10:19:08;;;;;;;3.70;3.40;;;29.90;89.80;;;;;;5040992;28;20196;-80
2022/07/09 10:21:37;;;;;;;1.97;1.50;;;29.90;89.60;;;;;;5044824;28;20258;-81
2022/07/09 10:24:07;;;;;;;4.17;1.70;;;29.60;88.30;;;;;;5046308;28;20230;-81
2022/07/09 10:26:38;;;;;;;1.70;1.60;;;29.60;88.60;;;;;;5043015;28;20196;-81
2022/07/09 10:29:19;;;;;;;4.60;4.20;;;29.60;88.20;;;;;;5027254;28;20260;-80
2022/07/09 10:31:47;;;;;;;4.53;4.23;;;29.50;88.10;;;;;;5041705;28;20192;-79
2022/07/09 10:34:37;;;;;;;4.97;4.57;;;29.20;87.90;;;;;;5028450;28;20224;-79
2022/07/09 10:37:05;;;;;;;5.17;4.67;;;29.20;86.00;;;;;;5052220;28;20231;-81
2022/07/09 10:39:34;;;;;;;5.10;4.70;;;29.20;87.80;;;;;;5039494;28;20188;-80
2022/07/09 10:42:03;;;;;;;3.83;3.53;;;29.10;87.10;;;;;;5043452;28;20199;-82
2022/07/09 10:44:34;;;;;;;2.07;1.50;;;29.10;86.30;;;;;;5043857;28;20208;-80
2022/07/09 10:47:02;;;;;;;2.93;2.73;;;28.70;84.50;;;;;;5043714;28;20214;-79
2022/07/09 10:49:29;;;;;;;2.20;2.10;;;28.40;84.60;;;;;;5050421;28;20220;-81
2022/07/09 10:51:59;;;;;;;5.20;4.70;;;27.90;86.70;;;;;;5040667;28;20211;-80
2022/07/09 10:54:26;;;;;;;4.97;4.60;;;27.80;89.10;;;;;;5044583;28;20280;-80
2022/07/09 10:56:55;;;;;;;2.13;1.70;;;27.80;90.60;;;;;;5037627;28;20207;-81
2022/07/09 10:59:23;;;;;;;3.40;3.20;;;27.90;88.50;;;;;;5038598;28;20196;-81
2022/07/09 11:01:50;;;;;;;4.90;4.60;;;28.00;87.80;;;;;;5025484;28;20250;-80
2022/07/09 11:04:28;;;;;;;2.13;1.70;;;27.80;89.70;;;;;;5038735;28;20223;-81
2022/07/09 11:06:55;;;;;;;2.63;1.43;;;27.80;89.20;;;;;;5036744;28;20222;-80
2022/07/09 11:09:23;;;;;;;5.13;4.83;;;27.70;89.00;;;;;;5043758;28;20216;-80
2022/07/09 11:11:50;;;;;;;5.00;4.70;;;27.70;89.80;;;;;;5034100;28;20202;-78
2022/07/09 11:14:18;;;;;;;5.20;4.80;;;27.60;86.00;;;;;;5036777;28;20245;-79
2022/07/09 11:16:54;;;;;;;1.83;1.73;;;27.30;86.00;;;;;;5036815;28;20198;-80
2022/07/09 11:19:22;;;;;;;2.17;1.93;;;27.30;88.80;;;;;;5055269;28;20217;-81
2022/07/09 11:21:49;;;;;;;1.57;1.47;;;27.40;89.20;;;;;;5039384;28;20200;-79
2022/07/09 11:24:18;;;;;;;2.20;2.00;;;27.40;86.10;;;;;;5042796;28;20242;-80
2022/07/09 11:26:46;;;;;;;3.37;3.07;;;27.30;87.10;;;;;;5033607;28;20192;-79
2022/07/09 11:29:13;;;;;;;3.60;3.40;;;27.30;86.40;;;;;;5037794;28;20219;-79
2022/07/09 11:31:49;;;;;;;4.10;3.90;;;27.20;88.80;;;;;;5034408;28;20261;-80
2022/07/09 11:34:16;;;;;;;4.97;4.67;;;27.30;89.20;;;;;;5032614;28;20216;-80
2022/07/09 11:36:45;;;;;;;4.77;4.10;;;27.40;90.20;;;;;;5039272;28;20223;-79
2022/07/09 11:39:23;;;;;;;3.30;3.00;;;27.40;90.00;;;;;;5037387;28;20436;-80
2022/07/09 11:41:50;;;;;;;5.10;4.80;;;27.30;88.80;;;;;;5043430;28;20278;-79
2022/07/09 11:44:25;;;;;;;5.13;4.73;;;27.30;90.20;;;;;;5038298;28;20704;-80
2022/07/09 11:47:04;;;;;;;5.20;4.90;;;27.40;91.00;;;;;;5039102;28;20204;-79
2022/07/09 11:49:36;;;;;;;5.10;4.80;;;27.40;91.00;;;;;;5034796;28;20211;-79
2022/07/09 11:52:04;;;;;;;5.00;4.70;;;27.60;90.60;;;;;;5041688;28;20206;-80
2022/07/09 11:54:31;;;;;;;4.70;4.40;;;28.00;91.20;;;;;;5042006;28;20222;-80
2022/07/09 11:56:58;;;;;;;4.70;4.40;;;28.20;90.80;;;;;;5035846;28;20274;-80
2022/07/09 11:59:31;;;;;;;3.80;3.40;;;28.20;90.40;;;;;;5037934;28;20197;-79
2022/07/09 12:02:03;;;;;;;4.43;4.07;;;28.00;90.50;;;;;;5043023;28;20206;-79
2022/07/09 12:04:31;;;;;;;4.80;4.40;;;27.70;91.50;;;;;;5038355;28;20216;-81
2022/07/09 12:06:58;;;;;;;4.53;4.23;;;27.50;90.10;;;;;;5022358;28;20298;-80
2022/07/09 12:09:30;;;;;;;5.30;4.90;;;27.40;90.80;;;;;;5038221;28;20291;-79
2022/07/09 12:11:57;;;;;;;5.70;5.30;;;27.20;91.10;;;;;;5023193;28;20208;-80
2022/07/09 12:14:24;;;;;;;4.90;4.60;;;27.30;91.30;;;;;;5037012;28;20215;-80
2022/07/09 12:16:51;;;;;;;5.30;4.90;;;27.50;91.40;;;;;;5028349;28;20195;-79
2022/07/09 12:19:19;;;;;;;4.80;4.50;;;27.40;91.80;;;;;;5017460;28;20250;-79
2022/07/09 12:21:46;;;;;;;4.20;3.83;;;27.50;91.40;;;;;;5029808;28;20657;-79
2022/07/09 12:24:12;;;;;;;3.70;3.50;;;27.60;90.70;;;;;;5031136;28;20228;-80
2022/07/09 12:26:39;;;;;;;5.17;4.77;;;27.60;91.00;;;;;;5033088;28;20196;-79
2022/07/09 12:29:06;;;;;;;4.93;4.60;;;27.90;91.40;;;;;;5033745;28;20207;-79
2022/07/09 12:31:36;;;;;;;5.10;4.70;;;28.00;90.30;;;;;;5032799;28;20274;-79
2022/07/09 12:34:04;;;;;;;5.00;4.70;;;27.80;91.20;;;;;;5022506;28;20732;-79
2022/07/09 12:36:32;;;;;;;5.03;4.73;;;27.50;90.80;;;;;;5040915;28;20751;-80
2022/07/09 12:38:59;;;;;;;5.40;5.00;;;27.50;91.30;;;;;;5048500;28;20202;-80
2022/07/09 12:41:26;;;;;;;5.30;4.90;;;27.40;91.60;;;;;;5056150;28;20611;-79
2022/07/09 12:43:53;;;;;;;5.57;5.17;;;27.50;92.30;;;;;;5053780;28;20294;-79
2022/07/09 12:46:19;;;;;;;5.60;5.17;;;27.30;91.70;;;;;;5054429;28;20191;-82
2022/07/09 12:48:46;;;;;;;5.30;4.80;;;27.30;92.30;;;;;;5050771;28;20203;-80
2022/07/09 12:51:13;;;;;;;5.30;5.00;;;27.10;91.40;;;;;;5036287;28;20711;-81